Time;durP1;ratioP1;P1;durP2;ratioP2;P2;SDS_P1;SDS_P2;PMS_P1;PMS_P2;Temp;Humidity;BMP_temperature;BMP_pressure;BME280_temperature;BME280_humidity;BME280_pressure;Samples;Min_cycle;Max_cycle;Signal;HPM_P1;HPM_P2
2022/06/02 00:00:24;;;;;;;12.95;9.35;;;;;;;18.20;100.00;100192.09;1731002;82;21137;-71
2022/06/02 00:03:15;;;;;;;11.30;7.45;;;;;;;18.17;100.00;100190.95;1731020;82;21081;-73
2022/06/02 00:05:59;;;;;;;11.68;8.23;;;;;;;18.16;100.00;100198.58;1730867;82;21070;-70
2022/06/02 00:08:54;;;;;;;16.25;9.68;;;;;;;18.16;100.00;100195.91;1702016;82;21049;-71
2022/06/02 00:11:55;;;;;;;17.20;10.25;;;;;;;18.15;100.00;100195.55;1709974;82;21104;-71
2022/06/02 00:14:35;;;;;;;;;;;;;;;18.12;100.00;100214.39;1696322;81;21199;-71
2022/06/02 00:17:09;;;;;;;19.32;12.00;;;;;;;18.09;99.45;100215.95;1733002;82;20439;-71
2022/06/02 00:20:02;;;;;;;16.05;10.58;;;;;;;18.07;100.00;100221.85;1725043;82;21053;-70
2022/06/02 00:22:40;;;;;;;17.82;10.28;;;;;;;18.04;100.00;100238.05;1732819;82;21038;-72
2022/06/02 00:25:36;;;;;;;17.90;11.40;;;;;;;18.01;100.00;100218.25;1732973;82;21053;-70
2022/06/02 00:28:27;;;;;;;18.62;10.15;;;;;;;18.00;100.00;100224.55;1732782;82;21146;-70
2022/06/02 00:31:19;;;;;;;17.37;11.12;;;;;;;17.95;100.00;100212.02;1732837;82;21021;-70
2022/06/02 00:34:08;;;;;;;19.35;10.93;;;;;;;17.93;100.00;100216.59;1733454;82;21519;-69
2022/06/02 00:36:49;;;;;;;16.07;11.65;;;;;;;17.89;100.00;100203.94;1732547;82;21132;-71
2022/06/02 00:39:15;;;;;;;;;;;;;;;17.86;100.00;100204.64;1735927;82;21006;-70
2022/06/02 00:41:58;;;;;;;22.07;10.45;;;;;;;17.82;100.00;100203.48;1733170;82;20202;-71
2022/06/02 00:44:34;;;;;;;;;;;;;;;17.79;100.00;100209.48;1735917;82;21094;-71
2022/06/02 00:47:11;;;;;;;14.93;10.20;;;;;;;17.73;100.00;100202.73;1733351;82;20186;-70
2022/06/02 00:49:52;;;;;;;14.30;9.65;;;;;;;17.69;100.00;100206.57;1730599;82;21022;-71
2022/06/02 00:52:31;;;;;;;;;;;;;;;17.68;100.00;100203.52;1736192;82;21076;-71
2022/06/02 00:58:32;;;;;;;13.68;9.43;;;;;;;17.63;100.00;100200.79;1733067;82;21082;-71
2022/06/02 01:01:13;;;;;;;16.12;9.85;;;;;;;17.60;100.00;100207.17;1732894;82;21049;-71
2022/06/02 01:03:47;;;;;;;14.78;9.75;;;;;;;17.55;100.00;100206.59;1733203;82;21077;-71
2022/06/02 01:06:45;;;;;;;14.50;9.70;;;;;;;17.52;100.00;100206.80;1733156;82;21057;-70
2022/06/02 01:09:37;;;;;;;12.73;10.13;;;;;;;17.48;100.00;100209.28;1733621;82;21800;-71
2022/06/02 01:12:26;;;;;;;19.62;10.25;;;;;;;17.44;100.00;100208.64;1722796;82;21087;-70
2022/06/02 01:15:45;;;;;;;13.40;9.48;;;;;;;17.37;100.00;100219.30;1715057;83;21035;-71
2022/06/02 01:18:55;;;;;;;15.35;10.08;;;;;;;17.30;100.00;100224.16;1715092;83;21047;-71
2022/06/02 01:21:42;;;;;;;15.30;10.63;;;;;;;17.24;100.00;100220.55;1715410;83;21070;-71
2022/06/02 01:24:34;;;;;;;14.43;10.45;;;;;;;17.13;100.00;100213.72;1715174;83;21836;-71
2022/06/02 01:27:27;;;;;;;13.08;10.40;;;;;;;17.09;100.00;100225.49;1708544;83;21030;-71
2022/06/02 01:30:14;;;;;;;13.08;10.05;;;;;;;17.04;100.00;100223.60;1713780;83;21034;-71
2022/06/02 01:33:05;;;;;;;15.00;10.10;;;;;;;16.98;100.00;100228.36;1715039;83;21058;-71
2022/06/02 01:35:43;;;;;;;14.15;11.20;;;;;;;16.93;100.00;100231.79;1691148;83;21083;-72
2022/06/02 01:38:49;;;;;;;14.50;10.72;;;;;;;16.89;100.00;100228.93;1714962;83;21083;-70
2022/06/02 01:41:46;;;;;;;15.38;9.90;;;;;;;16.87;100.00;100232.16;1674577;85;21681;-72
2022/06/02 01:44:18;;;;;;;18.57;10.88;;;;;;;16.83;100.00;100223.98;1674693;85;21091;-71
2022/06/02 01:46:59;;;;;;;14.13;10.00;;;;;;;16.76;100.00;100227.94;1703375;83;21093;-71
2022/06/02 01:49:44;;;;;;;17.15;11.30;;;;;;;16.70;100.00;100233.17;1696942;83;21130;-70
2022/06/02 01:52:45;;;;;;;15.08;10.48;;;;;;;16.68;100.00;100242.16;1692127;83;21150;-72
2022/06/02 01:55:36;;;;;;;13.53;9.58;;;;;;;16.66;100.00;100249.41;1714838;83;21031;-71
2022/06/02 01:58:20;;;;;;;15.48;10.23;;;;;;;16.64;100.00;100245.98;1714298;83;21634;-71
2022/06/02 02:00:50;;;;;;;13.03;9.55;;;;;;;16.64;100.00;100240.66;1714874;83;21070;-71
2022/06/02 02:03:25;;;;;;;14.90;11.65;;;;;;;16.63;100.00;100245.09;1715146;83;21042;-70
2022/06/02 02:06:29;;;;;;;17.48;10.55;;;;;;;16.63;100.00;100241.59;1715222;83;21100;-71
2022/06/02 02:09:22;;;;;;;14.90;10.45;;;;;;;16.63;100.00;100246.91;1715101;82;21618;-70
2022/06/02 02:11:54;;;;;;;13.10;9.73;;;;;;;16.63;100.00;100244.25;1738149;81;20990;-70
2022/06/02 02:14:57;;;;;;;18.95;11.53;;;;;;;16.64;100.00;100245.98;1763256;81;21289;-70
2022/06/02 02:17:54;;;;;;;18.57;11.55;;;;;;;16.65;100.00;100241.02;1740361;81;21074;-70
2022/06/02 02:20:35;;;;;;;18.30;12.13;;;;;;;16.67;100.00;100240.46;1744837;82;21290;-71
2022/06/02 02:23:05;;;;;;;;;;;;;;;16.69;100.00;100239.42;1747660;82;21661;-70
2022/06/02 02:25:54;;;;;;;19.23;12.18;;;;;;;16.69;100.00;100235.91;1745074;82;20171;-69
2022/06/02 02:28:41;;;;;;;16.80;11.60;;;;;;;16.68;100.00;100234.18;1744948;82;21089;-71
2022/06/02 02:31:40;;;;;;;22.27;11.97;;;;;;;16.70;100.00;100237.61;1744933;82;21586;-70
2022/06/02 02:34:37;;;;;;;17.50;12.40;;;;;;;16.69;100.00;100239.42;1744492;82;21178;-72
2022/06/02 02:37:24;;;;;;;18.17;12.10;;;;;;;16.72;100.00;100235.71;1745116;82;21049;-70
2022/06/02 02:40:07;;;;;;;18.77;11.70;;;;;;;16.75;100.00;100235.55;1745137;82;21050;-70
2022/06/02 02:42:54;;;;;;;19.00;11.45;;;;;;;16.80;100.00;100232.64;1745019;82;21046;-70
2022/06/02 02:45:37;;;;;;;16.97;11.93;;;;;;;16.84;100.00;100227.04;1745215;82;21543;-71
2022/06/02 04:56:10;;;;;;;5.78;3.15;;;;;;;24.05;73.98;100261.41;1786672;80;21635;-71
2022/06/02 04:59:00;;;;;;;6.30;3.62;;;;;;;24.37;71.84;100256.24;1680180;85;21089;-71
2022/06/02 05:02:01;;;;;;;4.53;3.45;;;;;;;24.75;69.82;100249.11;1681079;85;21636;-70
2022/06/02 05:04:45;;;;;;;5.25;3.72;;;;;;;25.07;68.73;100255.97;1766167;80;21214;-70
2022/06/02 05:08:04;;;;;;;5.40;3.77;;;;;;;25.38;67.17;100247.16;1787394;80;21056;-72
2022/06/02 05:10:43;;;;;;;7.28;3.92;;;;;;;25.68;66.48;100251.89;1787242;80;22098;-71
2022/06/02 05:13:21;;;;;;;7.03;3.27;;;;;;;25.94;65.51;100248.81;1756399;81;21084;-71
2022/06/02 05:16:18;;;;;;;6.92;3.90;;;;;;;26.08;64.45;100237.98;1723005;81;21072;-71
2022/06/02 05:18:50;;;;;;;5.75;3.60;;;;;;;26.27;63.65;100232.08;1756103;81;21100;-71
2022/06/02 05:21:52;;;;;;;3.85;3.30;;;;;;;26.48;62.27;100232.60;1756378;81;21045;-71
2022/06/02 05:24:33;;;;;;;5.28;3.22;;;;;;;26.68;61.25;100240.02;1756253;81;21041;-70
2022/06/02 05:27:40;;;;;;;4.83;3.42;;;;;;;26.97;59.22;100245.10;1742264;81;21088;-72
2022/06/02 05:30:33;;;;;;;4.75;3.00;;;;;;;26.97;59.59;100245.10;1715276;83;21105;-71
2022/06/02 05:33:21;;;;;;;4.22;2.80;;;;;;;27.07;58.89;100250.38;1713420;83;21108;-71
2022/06/02 05:36:35;;;;;;;4.95;2.60;;;;;;;27.25;57.31;100246.28;1712753;83;21088;-71
2022/06/02 05:39:31;;;;;;;4.53;3.08;;;;;;;27.32;55.78;100241.92;1713810;83;21128;-71
2022/06/02 05:42:22;;;;;;;4.75;3.10;;;;;;;27.32;56.02;100233.81;1712127;83;21057;-71
2022/06/02 05:45:11;;;;;;;5.15;2.98;;;;;;;27.53;56.49;100229.83;1713206;83;21109;-71
2022/06/02 05:48:02;;;;;;;8.08;3.40;;;;;;;27.88;55.68;100227.40;1712887;83;21800;-71
2022/06/02 05:50:58;;;;;;;5.90;3.60;;;;;;;28.12;54.31;100226.59;1712923;83;21038;-72
2022/06/02 05:53:47;;;;;;;3.92;3.52;;;;;;;28.22;55.27;100235.39;1712820;83;21085;-71
2022/06/02 05:56:26;;;;;;;6.10;3.47;;;;;;;28.48;53.50;100241.16;1709969;83;21117;-70
2022/06/02 05:59:10;;;;;;;7.92;3.45;;;;;;;28.54;53.35;100240.48;1712902;83;21621;-71
2022/06/02 06:01:59;;;;;;;5.67;3.40;;;;;;;28.68;53.04;100239.47;1711322;83;22347;-72
2022/06/02 06:05:15;;;;;;;5.92;3.33;;;;;;;28.81;53.08;100239.78;1700268;83;21033;-72
2022/06/02 06:08:32;;;;;;;4.60;3.00;;;;;;;29.04;52.60;100242.09;1683382;84;21091;-72
2022/06/02 06:11:30;;;;;;;4.12;2.90;;;;;;;29.49;47.14;100237.89;1684103;85;21604;-71
2022/06/02 06:14:16;;;;;;;6.00;3.55;;;;;;;29.85;43.59;100245.50;1712954;83;21113;-71
2022/06/02 06:17:23;;;;;;;7.37;3.25;;;;;;;30.09;42.20;100238.20;1713110;83;21194;-72
2022/06/02 06:20:06;;;;;;;6.08;3.25;;;;;;;29.92;42.03;100242.08;1712617;83;21120;-71
2022/06/02 06:23:13;;;;;;;3.75;3.10;;;;;;;29.81;42.76;100244.68;1708574;83;21084;-72
2022/06/02 06:25:56;;;;;;;3.62;2.92;;;;;;;30.10;42.92;100248.05;1712682;83;21652;-73
2022/06/02 06:28:23;;;;;;;3.58;2.95;;;;;;;30.45;40.94;100240.33;1709610;83;21025;-72
2022/06/02 06:31:15;;;;;;;6.00;2.75;;;;;;;30.79;40.65;100248.51;1712916;83;22168;-71
2022/06/02 06:34:06;;;;;;;3.65;2.50;;;;;;;31.17;38.80;100248.45;1712548;83;21088;-73
2022/06/02 06:37:13;;;;;;;3.77;2.70;;;;;;;31.44;37.06;100249.16;1685880;83;21057;-71
2022/06/02 06:40:03;;;;;;;3.60;2.58;;;;;;;31.47;37.15;100251.52;1713452;83;21064;-74
2022/06/02 06:42:55;;;;;;;4.95;2.77;;;;;;;31.65;36.14;100255.69;1713284;83;21568;-72
2022/06/02 06:45:29;;;;;;;5.42;2.25;;;;;;;31.41;35.88;100254.98;1713148;83;21165;-71
2022/06/02 06:48:13;;;;;;;4.58;2.45;;;;;;;31.35;35.56;100251.09;1712942;83;21072;-75
2022/06/02 06:50:50;;;;;;;3.37;2.85;;;;;;;31.17;36.53;100255.25;1710771;83;21136;-72
2022/06/02 06:54:02;;;;;;;4.17;2.60;;;;;;;31.04;36.65;100260.84;1712821;83;21578;-73
2022/06/02 06:56:49;;;;;;;5.55;2.45;;;;;;;30.67;37.42;100255.75;1713038;83;21073;-73
2022/06/02 06:59:33;;;;;;;2.58;2.33;;;;;;;30.56;37.31;100268.42;1712920;83;21821;-73
2022/06/02 07:02:30;;;;;;;3.33;2.50;;;;;;;30.76;37.06;100267.39;1712824;83;21107;-73
2022/06/02 07:05:36;;;;;;;4.72;2.40;;;;;;;30.94;36.80;100261.13;1712716;83;21026;-73
2022/06/02 07:08:27;;;;;;;3.85;2.58;;;;;;;31.01;36.45;100262.55;1713057;83;21526;-74
2022/06/02 07:14:23;;;;;;;3.10;2.45;;;;;;;31.34;35.34;100264.91;1742722;82;21867;-74
2022/06/02 07:16:59;;;;;;;3.45;2.60;;;;;;;31.24;35.50;100261.62;1742766;82;21074;-73
2022/06/02 07:19:55;;;;;;;3.12;2.60;;;;;;;31.27;35.41;100268.06;1744203;82;21039;-71
2022/06/02 07:22:39;;;;;;;5.78;2.58;;;;;;;31.35;35.40;100269.30;1742224;82;21632;-72
2022/06/02 07:25:23;;;;;;;6.12;2.80;;;;;;;31.58;34.93;100273.82;1742622;82;21047;-72
2022/06/02 07:28:04;;;;;;;7.40;2.83;;;;;;;31.42;35.05;100275.70;1742449;82;21142;-72
2022/06/02 07:30:51;;;;;;;7.47;2.50;;;;;;;31.00;35.98;100276.36;1748501;82;21050;-72
2022/06/02 07:33:42;;;;;;;4.70;2.52;;;;;;;30.67;36.96;100276.66;1750585;82;21066;-71
2022/06/02 07:36:48;;;;;;;4.42;2.27;;;;;;;30.37;37.62;100292.00;1721010;82;21042;-72
2022/06/02 07:39:32;;;;;;;6.17;2.50;;;;;;;30.15;37.90;100293.16;1750139;82;21046;-72
2022/06/02 07:42:24;;;;;;;7.33;2.60;;;;;;;30.30;37.46;100298.70;1750649;82;21150;-72
2022/06/02 07:45:23;;;;;;;4.50;2.30;;;;;;;30.44;36.74;100293.00;1750375;82;21129;-72
2022/06/02 07:48:17;;;;;;;8.73;2.42;;;;;;;30.67;37.24;100299.24;1750438;82;22227;-72
2022/06/02 07:51:04;;;;;;;4.47;2.20;;;;;;;30.82;36.61;100299.78;1750609;82;21086;-73
2022/06/02 07:53:41;;;;;;;5.08;2.52;;;;;;;30.89;37.03;100302.12;1710937;82;21551;-73
2022/06/02 07:56:36;;;;;;;5.30;2.30;;;;;;;31.22;36.56;100293.61;1749608;82;21238;-72
2022/06/02 07:59:28;;;;;;;4.62;2.30;;;;;;;31.42;35.49;100303.45;1750259;82;21145;-72
2022/06/02 08:02:21;;;;;;;3.33;2.15;;;;;;;31.18;36.06;100301.84;1747244;82;21571;-73
2022/06/02 08:05:22;;;;;;;4.35;2.60;;;;;;;30.89;36.84;100307.55;1750572;82;21551;-71
2022/06/02 08:07:55;;;;;;;8.58;2.80;;;;;;;30.85;36.99;100303.52;1750796;82;21059;-73
2022/06/02 08:11:06;;;;;;;3.35;2.67;;;;;;;30.39;38.34;100308.97;1750870;82;20992;-71
2022/06/02 08:13:43;;;;;;;6.10;2.90;;;;;;;29.90;38.62;100308.23;1712710;83;21045;-71
2022/06/02 08:16:48;;;;;;;5.72;2.40;;;;;;;29.21;39.21;100323.42;1712697;83;21081;-71
2022/06/02 08:19:36;;;;;;;5.87;2.60;;;;;;;29.21;39.21;100323.42;1712699;83;21105;-74
2022/06/02 08:22:05;;;;;;;4.70;2.22;;;;;;;28.82;39.93;100320.90;1712730;83;21060;-73
2022/06/02 08:24:54;;;;;;;5.72;2.33;;;;;;;28.52;40.68;100322.44;1712854;83;21217;-73
2022/06/02 08:27:49;;;;;;;3.70;2.33;;;;;;;28.28;41.12;100326.46;1712629;83;21069;-73
2022/06/02 08:30:23;;;;;;;6.83;2.83;;;;;;;28.24;41.74;100328.13;1712560;83;21089;-72
2022/06/02 08:33:26;;;;;;;7.60;2.85;;;;;;;28.43;41.54;100334.25;1712600;83;21666;-72
2022/06/02 08:36:13;;;;;;;6.70;2.75;;;;;;;28.45;41.29;100336.28;1712423;83;21080;-71
2022/06/02 08:39:09;;;;;;;6.20;2.83;;;;;;;28.42;42.04;100327.98;1712883;83;21099;-72
2022/06/02 08:42:04;;;;;;;3.70;2.67;;;;;;;28.65;42.29;100329.55;1711580;83;21058;-70
2022/06/02 08:45:03;;;;;;;3.55;2.50;;;;;;;28.87;42.13;100332.58;1701147;83;21073;-71
2022/06/02 08:48:05;;;;;;;7.47;2.67;;;;;;;29.19;41.17;100334.95;1658481;85;21061;-71
2022/06/02 08:51:04;;;;;;;3.37;2.42;;;;;;;29.02;41.51;100328.17;1712808;83;21246;-72
2022/06/02 08:54:01;;;;;;;4.17;2.47;;;;;;;28.80;41.76;100332.94;1701792;83;21160;-72
2022/06/02 08:56:48;;;;;;;8.70;2.77;;;;;;;28.58;42.15;100327.19;1662492;83;21161;-70
2022/06/02 08:59:41;;;;;;;4.62;2.62;;;;;;;28.50;42.98;100318.20;1712328;83;21045;-72
2022/06/02 09:02:34;;;;;;;6.60;2.80;;;;;;;28.47;42.56;100320.75;1710966;83;22061;-72
2022/06/02 09:05:46;;;;;;;5.25;2.80;;;;;;;28.62;42.72;100319.06;1712611;83;21105;-71
2022/06/02 09:08:55;;;;;;;3.50;2.35;;;;;;;28.98;41.21;100324.10;1667897;83;21183;-72
2022/06/02 09:12:08;;;;;;;7.55;2.62;;;;;;;29.45;40.81;100317.93;1720951;82;21411;-72
2022/06/02 09:14:56;;;;;;;2.83;2.52;;;;;;;30.53;38.80;100311.76;1742993;82;21091;-72
2022/06/02 09:17:47;;;;;;;6.50;2.20;;;;;;;30.53;38.80;100311.76;1742542;82;21066;-72
2022/06/02 09:20:40;;;;;;;9.60;2.42;;;;;;;30.91;38.00;100308.22;1743646;82;26959;-73
2022/06/02 09:23:31;;;;;;;5.42;2.10;;;;;;;31.39;37.54;100307.36;1743129;82;21839;-72
2022/06/02 09:26:27;;;;;;;2.52;2.00;;;;;;;32.01;36.25;100305.27;1743453;82;21079;-72
2022/06/02 09:29:21;;;;;;;5.03;2.22;;;;;;;32.42;34.89;100301.88;1732269;82;21098;-71
2022/06/02 09:32:11;;;;;;;4.45;2.33;;;;;;;32.80;34.25;100308.75;1743069;82;21527;-71
2022/06/02 09:34:53;;;;;;;3.67;2.15;;;;;;;32.90;33.77;100306.20;1743480;82;21106;-72
2022/06/02 09:38:11;;;;;;;4.87;2.10;;;;;;;33.14;33.76;100296.76;1743312;82;21128;-72
2022/06/02 09:40:58;;;;;;;5.65;2.35;;;;;;;33.47;32.53;100302.38;1743127;82;20971;-72
2022/06/02 09:43:51;;;;;;;4.03;2.05;;;;;;;33.68;32.20;100297.89;1743524;82;21063;-71
2022/06/02 09:46:53;;;;;;;2.70;2.08;;;;;;;34.07;31.29;100297.17;1743371;82;21052;-72
2022/06/02 09:49:52;;;;;;;3.42;2.50;;;;;;;34.38;30.41;100299.37;1743239;82;21144;-72
2022/06/02 09:52:45;;;;;;;6.10;2.20;;;;;;;34.19;30.75;100298.30;1743141;82;21533;-73
2022/06/02 09:55:29;;;;;;;3.75;2.20;;;;;;;33.81;30.46;100295.22;1743391;82;21122;-71
2022/06/02 09:58:34;;;;;;;8.03;2.52;;;;;;;33.48;30.97;100289.08;1698153;82;21094;-71
2022/06/02 10:01:21;;;;;;;3.95;1.65;;;;;;;33.31;31.39;100290.44;1743367;82;21051;-72
2022/06/02 10:04:12;;;;;;;5.08;2.20;;;;;;;33.00;31.05;100278.06;1716124;82;21043;-73
2022/06/02 10:07:07;;;;;;;4.22;1.85;;;;;;;33.05;31.17;100274.23;1743488;82;21142;-73
2022/06/02 10:10:16;;;;;;;2.70;1.87;;;;;;;33.31;30.98;100267.24;1743002;82;21089;-72
2022/06/02 10:13:03;;;;;;;5.65;2.10;;;;;;;33.33;30.72;100262.43;1749532;82;21056;-72
2022/06/02 10:16:09;;;;;;;4.47;1.87;;;;;;;33.11;30.80;100258.97;1750672;82;20997;-71
2022/06/02 10:19:25;;;;;;;5.65;2.10;;;;;;;32.88;31.05;100257.85;1750576;82;21045;-72
2022/06/02 10:22:25;;;;;;;5.80;2.08;;;;;;;32.93;30.84;100251.27;1750293;82;21674;-73
2022/06/02 10:25:07;;;;;;;2.22;1.92;;;;;;;32.80;30.89;100240.58;1749626;82;21240;-71
2022/06/02 10:27:58;;;;;;;4.75;2.12;;;;;;;32.70;30.68;100236.53;1750534;82;21088;-72
2022/06/02 10:30:36;;;;;;;5.22;1.90;;;;;;;32.61;31.75;100234.47;1747204;82;21540;-72
2022/06/02 10:33:24;;;;;;;7.97;2.40;;;;;;;32.74;31.32;100234.58;1741424;82;21057;-72
2022/06/02 10:36:28;;;;;;;3.95;2.33;;;;;;;32.72;30.97;100225.75;1742379;82;21383;-72
2022/06/02 10:39:18;;;;;;;4.72;2.30;;;;;;;32.66;31.17;100222.45;1742541;82;21612;-73
2022/06/02 10:41:53;;;;;;;7.35;2.62;;;;;;;32.87;30.72;100217.44;1742787;82;21330;-73
2022/06/02 10:44:59;;;;;;;3.83;2.25;;;;;;;33.13;30.44;100212.70;1742528;82;21069;-72
2022/06/02 10:47:48;;;;;;;7.15;2.65;;;;;;;33.20;30.69;100206.75;1742845;82;21064;-70
2022/06/02 10:50:46;;;;;;;6.75;2.50;;;;;;;33.12;30.33;100200.09;1699956;82;21224;-72
2022/06/02 10:54:03;;;;;;;8.55;2.58;;;;;;;32.88;31.00;100200.05;1711369;82;21081;-72
2022/06/02 10:56:38;;;;;;;3.98;2.30;;;;;;;32.95;31.30;100197.36;1741723;82;21045;-73
2022/06/02 10:59:59;;;;;;;4.45;2.60;;;;;;;32.88;29.93;100188.30;1742286;82;21596;-72
2022/06/02 11:03:11;;;;;;;5.65;2.45;;;;;;;32.93;30.47;100184.45;1742409;82;21069;-71
2022/06/02 11:05:56;;;;;;;5.95;2.60;;;;;;;32.92;30.28;100181.38;1741756;82;21341;-73
2022/06/02 11:08:43;;;;;;;4.30;2.80;;;;;;;33.10;30.61;100179.52;1742606;82;21073;-72
2022/06/02 11:12:07;;;;;;;8.15;2.75;;;;;;;32.84;30.23;100172.85;1736943;82;21051;-71
2022/06/02 11:15:18;;;;;;;5.15;2.70;;;;;;;32.88;30.54;100169.22;1712839;83;21106;-71
2022/06/02 11:17:57;;;;;;;8.90;2.70;;;;;;;33.05;31.08;100164.28;1706759;83;21036;-73
2022/06/02 11:20:58;;;;;;;6.12;2.77;;;;;;;33.21;30.05;100159.30;1712902;83;21509;-72
2022/06/02 11:23:50;;;;;;;6.55;2.60;;;;;;;33.29;29.95;100152.84;1713039;83;21028;-71
2022/06/02 11:26:40;;;;;;;5.60;2.50;;;;;;;33.13;30.03;100152.68;1712780;82;21153;-72
2022/06/02 11:30:00;;;;;;;5.55;2.37;;;;;;;32.85;30.40;100151.87;1712884;82;21044;-72
2022/06/02 11:32:53;;;;;;;3.70;2.20;;;;;;;32.53;30.77;100146.02;1713010;82;21131;-72
2022/06/02 11:35:34;;;;;;;5.00;2.37;;;;;;;32.46;30.46;100143.73;1711238;83;21056;-72
2022/06/02 11:38:27;;;;;;;4.25;2.27;;;;;;;32.70;30.10;100145.20;1712789;82;21339;-72
2022/06/02 11:41:14;;;;;;;5.15;2.70;;;;;;;32.88;30.04;100134.59;1712954;83;21024;-71
2022/06/02 11:44:04;;;;;;;5.92;2.37;;;;;;;32.91;29.76;100136.91;1712549;82;21062;-71
2022/06/02 11:47:01;;;;;;;6.05;2.40;;;;;;;32.92;30.34;100130.92;1712907;83;21102;-73
2022/06/02 11:49:53;;;;;;;5.30;2.30;;;;;;;32.67;30.43;100134.17;1711192;82;21773;-71
2022/06/02 11:52:49;;;;;;;6.17;2.85;;;;;;;32.46;30.68;100132.84;1712683;82;21570;-73
2022/06/02 11:55:23;;;;;;;6.72;2.40;;;;;;;32.12;31.70;100133.98;1712915;82;21059;-73
2022/06/02 11:58:46;;;;;;;5.97;2.65;;;;;;;31.95;31.83;100136.09;1712929;83;21529;-72
2022/06/02 12:01:27;;;;;;;4.85;2.62;;;;;;;31.94;31.33;100124.88;1712939;82;21095;-73
2022/06/02 12:04:19;;;;;;;3.83;2.72;;;;;;;32.18;32.09;100120.06;1712882;82;21136;-72
2022/06/02 12:07:17;;;;;;;7.22;2.42;;;;;;;32.48;30.87;100119.86;1712691;82;21028;-72
2022/06/02 12:10:31;;;;;;;9.98;2.92;;;;;;;32.71;30.31;100121.80;1713115;82;21048;-72
2022/06/02 12:13:44;;;;;;;5.70;2.37;;;;;;;32.92;30.61;100124.10;1741064;82;21093;-72
2022/06/02 12:16:46;;;;;;;5.45;2.70;;;;;;;32.70;30.72;100120.12;1742269;82;21076;-72
2022/06/02 12:19:27;;;;;;;6.47;2.70;;;;;;;32.37;30.96;100120.75;1742331;82;21442;-72
2022/06/02 12:22:02;;;;;;;7.65;3.25;;;;;;;31.89;31.71;100124.64;1741742;82;21065;-72
2022/06/02 12:25:23;;;;;;;8.33;2.90;;;;;;;31.69;31.90;100127.17;1742374;82;21534;-72
2022/06/02 12:28:21;;;;;;;7.35;3.15;;;;;;;31.69;32.00;100121.72;1742636;82;20991;-73
2022/06/02 12:31:05;;;;;;;8.60;2.55;;;;;;;31.49;32.38;100113.88;1743955;82;22857;-73
2022/06/02 12:34:22;;;;;;;6.60;2.98;;;;;;;31.05;32.96;100114.30;1750452;82;21934;-71
2022/06/02 12:37:07;;;;;;;10.00;3.45;;;;;;;30.73;33.98;100112.28;1750568;82;21518;-73
2022/06/02 12:39:50;;;;;;;7.62;3.33;;;;;;;30.61;34.12;100117.88;1748448;82;21040;-72
2022/06/02 12:42:58;;;;;;;6.87;3.15;;;;;;;30.63;33.82;100117.17;1750828;82;21244;-73
2022/06/02 12:46:04;;;;;;;6.33;3.08;;;;;;;30.83;34.24;100118.81;1750426;82;21049;-71
2022/06/02 12:48:52;;;;;;;5.80;2.98;;;;;;;31.00;33.61;100114.03;1712778;82;21108;-72
2022/06/02 12:51:44;;;;;;;7.35;2.62;;;;;;;31.25;33.24;100117.78;1750763;82;21041;-72
2022/06/02 12:54:54;;;;;;;4.30;2.40;;;;;;;31.37;33.10;100097.19;1750380;82;21040;-72
2022/06/02 12:57:59;;;;;;;7.53;2.72;;;;;;;31.25;32.88;100101.46;1750566;82;21576;-72
2022/06/02 13:01:09;;;;;;;4.95;2.60;;;;;;;31.01;33.58;100098.03;1750794;82;21124;-71
2022/06/02 13:04:08;;;;;;;5.85;2.92;;;;;;;30.94;33.13;100091.67;1696755;82;21529;-71
2022/06/02 13:07:04;;;;;;;7.35;2.75;;;;;;;30.97;33.21;100091.80;1749143;82;21065;-71
2022/06/02 13:09:47;;;;;;;7.03;3.00;;;;;;;30.89;33.85;100083.25;1750585;82;21100;-71
2022/06/02 13:12:48;;;;;;;4.22;2.60;;;;;;;30.82;33.27;100082.30;1731141;82;21482;-71
2022/06/02 13:15:38;;;;;;;5.03;2.75;;;;;;;30.82;33.14;100074.14;1720851;83;21110;-72
2022/06/02 13:19:01;;;;;;;8.95;2.70;;;;;;;30.73;33.53;100059.28;1720700;83;21163;-72
2022/06/02 13:21:54;;;;;;;4.17;2.58;;;;;;;30.85;34.26;100050.67;1720607;83;21060;-72
2022/06/02 13:25:00;;;;;;;5.50;2.80;;;;;;;30.89;33.06;100046.55;1720634;83;21048;-72
2022/06/02 13:28:10;;;;;;;6.20;2.60;;;;;;;30.90;33.44;100034.65;1720498;83;21031;-72
2022/06/02 13:30:48;;;;;;;11.70;3.65;;;;;;;30.78;33.22;100045.64;1720715;83;21082;-72
2022/06/02 13:33:40;;;;;;;5.97;2.60;;;;;;;30.59;33.89;100050.64;1720845;83;21102;-73
2022/06/02 13:36:29;;;;;;;5.53;2.75;;;;;;;30.37;33.60;100056.52;1720833;83;21079;-72
2022/06/02 13:39:36;;;;;;;6.55;2.45;;;;;;;30.20;33.75;100054.45;1720612;83;21056;-71
2022/06/02 13:42:25;;;;;;;6.87;2.95;;;;;;;30.10;34.54;100059.33;1720689;83;21575;-73
2022/06/02 13:45:30;;;;;;;6.35;2.75;;;;;;;30.07;34.13;100051.53;1719531;83;21140;-71
2022/06/02 13:48:51;;;;;;;8.55;2.75;;;;;;;30.21;33.86;100058.03;1720624;83;21393;-70
2022/06/02 13:52:14;;;;;;;6.45;2.60;;;;;;;30.21;34.13;100056.16;1720587;83;21059;-71
2022/06/02 13:58:32;;;;;;;9.45;2.80;;;;;;;30.11;34.36;100059.64;1698540;83;21016;-72
2022/06/02 14:01:23;;;;;;;9.93;3.02;;;;;;;29.99;34.89;100059.77;1720528;83;21152;-73
2022/06/02 14:03:56;;;;;;;;;;;;;;;29.83;35.15;100072.47;1723272;83;21804;-73
2022/06/02 14:06:24;;;;;;;5.05;3.10;;;;;;;29.68;35.24;100067.53;1720504;83;20326;-73
2022/06/02 14:09:11;;;;;;;5.83;3.00;;;;;;;29.45;35.64;100071.06;1721042;83;21657;-72
2022/06/02 14:12:19;;;;;;;7.97;2.60;;;;;;;29.30;36.11;100067.43;1720842;83;20999;-72
2022/06/02 14:15:08;;;;;;;7.50;2.83;;;;;;;29.22;36.31;100081.06;1734889;82;21021;-73
2022/06/02 14:18:11;;;;;;;4.92;2.50;;;;;;;29.07;36.08;100076.38;1721477;82;21229;-72
2022/06/02 14:20:58;;;;;;;7.87;2.95;;;;;;;29.02;36.25;100066.55;1720619;83;21059;-72
2022/06/02 14:23:54;;;;;;;6.70;2.90;;;;;;;29.01;37.03;100063.52;1720749;82;21063;-72
2022/06/02 14:26:25;;;;;;;6.28;2.83;;;;;;;28.97;37.17;100058.13;1720762;83;21063;-73
2022/06/02 14:29:22;;;;;;;8.05;3.45;;;;;;;28.95;36.84;100058.80;1720396;83;21543;-73
2022/06/02 14:32:21;;;;;;;7.05;3.15;;;;;;;28.95;37.15;100049.31;1720612;82;21088;-74
2022/06/02 14:35:23;;;;;;;7.05;3.12;;;;;;;29.05;36.52;100045.86;1712935;82;21020;-72
2022/06/02 14:38:31;;;;;;;5.97;3.00;;;;;;;29.26;37.35;100044.40;1712928;83;21115;-73
2022/06/02 14:41:15;;;;;;;6.12;2.80;;;;;;;29.41;36.77;100031.75;1712953;82;21067;-71
2022/06/02 14:43:50;;;;;;;5.45;3.10;;;;;;;29.55;36.57;100029.28;1712973;82;21115;-72
2022/06/02 14:46:56;;;;;;;5.12;3.17;;;;;;;29.65;36.43;100016.28;1712874;83;21252;-73
2022/06/02 14:49:44;;;;;;;8.50;2.90;;;;;;;29.86;35.54;100004.26;1712886;82;21067;-73
2022/06/02 14:55:48;;;;;;;10.80;2.92;;;;;;;29.83;35.37;99991.56;1712891;83;21208;-73
2022/06/02 14:58:28;;;;;;;5.42;2.95;;;;;;;29.75;36.21;99984.34;1712928;83;21123;-72
2022/06/02 15:01:21;;;;;;;6.35;3.20;;;;;;;29.68;36.64;99980.69;1712922;83;21170;-75
2022/06/02 15:04:29;;;;;;;5.70;3.45;;;;;;;29.58;36.00;99972.76;1712683;82;21090;-72
2022/06/02 15:07:23;;;;;;;5.28;3.40;;;;;;;29.55;35.73;99973.14;1712718;83;21057;-72
2022/06/02 15:10:20;;;;;;;5.72;3.35;;;;;;;29.48;35.54;99977.62;1712813;83;22147;-73
2022/06/02 15:13:09;;;;;;;5.30;2.90;;;;;;;29.51;35.12;99980.47;1709661;83;21146;-73
2022/06/02 15:16:01;;;;;;;4.70;2.85;;;;;;;29.59;35.60;99984.48;1712972;83;21194;-71
2022/06/02 15:19:16;;;;;;;7.95;3.20;;;;;;;29.58;35.41;99985.48;1712449;82;21040;-73
2022/06/02 15:22:11;;;;;;;5.65;2.42;;;;;;;29.58;35.63;99986.84;1712999;82;21063;-73
2022/06/02 15:25:14;;;;;;;4.42;2.75;;;;;;;29.65;36.22;99989.15;1712849;83;21032;-74
2022/06/02 15:28:07;;;;;;;4.78;2.85;;;;;;;29.56;35.63;99988.89;1713138;83;21071;-73
2022/06/02 15:31:00;;;;;;;4.90;2.95;;;;;;;29.56;35.63;99988.89;1713095;83;21592;-72
2022/06/02 15:34:10;;;;;;;8.95;2.98;;;;;;;29.52;35.55;99984.86;1714519;82;21639;-73
2022/06/02 15:37:17;;;;;;;7.65;3.30;;;;;;;29.46;36.01;99988.64;1713052;83;21085;-73
2022/06/02 15:40:23;;;;;;;7.03;2.70;;;;;;;29.38;36.08;99992.80;1712964;83;21576;-73